sensor_id;sensor_type;location;lat;lon;timestamp;P1;durP1;ratioP1;P2;durP2;ratioP2
68940;SDS011;55982;51.476;7.552;2023-06-24T00:02:00;12.35;;;8.45;;
68940;SDS011;55982;51.476;7.552;2023-06-24T00:04:26;12.38;;;7.97;;
68940;SDS011;55982;51.476;7.552;2023-06-24T00:06:51;12.00;;;8.02;;
68940;SDS011;55982;51.476;7.552;2023-06-24T00:09:17;9.57;;;7.50;;
68940;SDS011;55982;51.476;7.552;2023-06-24T00:11:43;12.32;;;7.93;;
68940;SDS011;55982;51.476;7.552;2023-06-24T00:14:08;11.93;;;7.78;;
68940;SDS011;55982;51.476;7.552;2023-06-24T00:16:34;18.35;;;8.55;;
68940;SDS011;55982;51.476;7.552;2023-06-24T00:19:01;11.52;;;8.43;;
68940;SDS011;55982;51.476;7.552;2023-06-24T00:21:26;13.60;;;8.70;;
68940;SDS011;55982;51.476;7.552;2023-06-24T00:24:00;13.20;;;8.10;;
68940;SDS011;55982;51.476;7.552;2023-06-24T00:26:32;13.55;;;8.48;;
68940;SDS011;55982;51.476;7.552;2023-06-24T00:28:57;13.95;;;8.63;;
68940;SDS011;55982;51.476;7.552;2023-06-24T00:31:23;12.98;;;8.65;;
68940;SDS011;55982;51.476;7.552;2023-06-24T00:33:49;14.60;;;8.57;;
68940;SDS011;55982;51.476;7.552;2023-06-24T00:36:14;12.70;;;8.50;;
68940;SDS011;55982;51.476;7.552;2023-06-24T00:38:40;10.10;;;7.68;;
68940;SDS011;55982;51.476;7.552;2023-06-24T00:41:05;10.43;;;8.02;;
68940;SDS011;55982;51.476;7.552;2023-06-24T00:43:31;13.27;;;8.40;;
68940;SDS011;55982;51.476;7.552;2023-06-24T00:45:57;11.30;;;8.65;;
68940;SDS011;55982;51.476;7.552;2023-06-24T00:48:22;13.15;;;8.77;;
68940;SDS011;55982;51.476;7.552;2023-06-24T00:50:49;11.98;;;8.32;;
68940;SDS011;55982;51.476;7.552;2023-06-24T00:53:15;15.18;;;8.63;;
68940;SDS011;55982;51.476;7.552;2023-06-24T00:55:41;14.90;;;9.32;;
68940;SDS011;55982;51.476;7.552;2023-06-24T00:58:06;15.55;;;9.48;;
68940;SDS011;55982;51.476;7.552;2023-06-24T01:00:32;13.88;;;8.95;;
68940;SDS011;55982;51.476;7.552;2023-06-24T01:02:59;13.35;;;8.88;;
68940;SDS011;55982;51.476;7.552;2023-06-24T01:05:25;12.43;;;8.95;;
68940;SDS011;55982;51.476;7.552;2023-06-24T01:07:51;16.42;;;9.60;;
68940;SDS011;55982;51.476;7.552;2023-06-24T01:10:20;13.98;;;9.10;;
68940;SDS011;55982;51.476;7.552;2023-06-24T01:12:48;18.73;;;9.07;;
68940;SDS011;55982;51.476;7.552;2023-06-24T01:15:13;13.27;;;8.90;;
68940;SDS011;55982;51.476;7.552;2023-06-24T01:20:47;14.88;;;9.32;;
68940;SDS011;55982;51.476;7.552;2023-06-24T01:26:04;14.98;;;9.38;;
68940;SDS011;55982;51.476;7.552;2023-06-24T01:31:35;14.65;;;10.27;;
68940;SDS011;55982;51.476;7.552;2023-06-24T01:34:22;17.73;;;9.90;;
68940;SDS011;55982;51.476;7.552;2023-06-24T01:37:16;15.73;;;9.15;;
68940;SDS011;55982;51.476;7.552;2023-06-24T01:39:49;15.63;;;10.23;;
68940;SDS011;55982;51.476;7.552;2023-06-24T01:42:17;13.57;;;9.38;;
68940;SDS011;55982;51.476;7.552;2023-06-24T01:44:47;14.40;;;9.40;;
68940;SDS011;55982;51.476;7.552;2023-06-24T01:47:14;14.30;;;9.98;;
68940;SDS011;55982;51.476;7.552;2023-06-24T01:49:45;18.35;;;9.05;;
68940;SDS011;55982;51.476;7.552;2023-06-24T01:52:11;15.48;;;9.20;;
68940;SDS011;55982;51.476;7.552;2023-06-24T01:54:38;15.73;;;9.82;;
68940;SDS011;55982;51.476;7.552;2023-06-24T01:57:07;12.52;;;9.00;;
68940;SDS011;55982;51.476;7.552;2023-06-24T01:59:35;14.82;;;9.32;;
68940;SDS011;55982;51.476;7.552;2023-06-24T02:02:05;14.35;;;8.93;;
68940;SDS011;55982;51.476;7.552;2023-06-24T02:04:31;13.40;;;9.20;;
68940;SDS011;55982;51.476;7.552;2023-06-24T02:06:59;16.30;;;9.70;;
68940;SDS011;55982;51.476;7.552;2023-06-24T02:09:26;15.15;;;9.48;;
68940;SDS011;55982;51.476;7.552;2023-06-24T02:11:56;18.75;;;9.75;;
68940;SDS011;55982;51.476;7.552;2023-06-24T02:14:23;14.25;;;9.93;;
68940;SDS011;55982;51.476;7.552;2023-06-24T02:16:50;16.27;;;9.38;;
68940;SDS011;55982;51.476;7.552;2023-06-24T02:19:21;11.68;;;8.52;;
68940;SDS011;55982;51.476;7.552;2023-06-24T02:21:48;12.93;;;9.07;;
68940;SDS011;55982;51.476;7.552;2023-06-24T02:24:16;16.42;;;9.45;;
68940;SDS011;55982;51.476;7.552;2023-06-24T02:26:43;16.65;;;9.63;;
68940;SDS011;55982;51.476;7.552;2023-06-24T02:29:09;16.23;;;9.68;;
68940;SDS011;55982;51.476;7.552;2023-06-24T02:31:37;17.48;;;11.07;;
68940;SDS011;55982;51.476;7.552;2023-06-24T02:34:02;16.13;;;10.23;;
68940;SDS011;55982;51.476;7.552;2023-06-24T02:36:28;16.38;;;10.23;;
68940;SDS011;55982;51.476;7.552;2023-06-24T02:38:54;17.15;;;9.77;;
68940;SDS011;55982;51.476;7.552;2023-06-24T02:41:19;14.65;;;9.95;;
68940;SDS011;55982;51.476;7.552;2023-06-24T02:43:44;16.45;;;9.93;;
68940;SDS011;55982;51.476;7.552;2023-06-24T02:46:09;17.65;;;10.68;;
68940;SDS011;55982;51.476;7.552;2023-06-24T02:48:36;15.02;;;10.40;;
68940;SDS011;55982;51.476;7.552;2023-06-24T02:51:04;15.50;;;10.13;;
68940;SDS011;55982;51.476;7.552;2023-06-24T02:53:31;15.63;;;10.30;;
68940;SDS011;55982;51.476;7.552;2023-06-24T02:55:56;18.95;;;10.13;;
68940;SDS011;55982;51.476;7.552;2023-06-24T02:58:23;18.77;;;10.93;;
68940;SDS011;55982;51.476;7.552;2023-06-24T03:00:56;15.75;;;10.50;;
68940;SDS011;55982;51.476;7.552;2023-06-24T03:03:27;17.63;;;10.40;;
68940;SDS011;55982;51.476;7.552;2023-06-24T03:05:53;19.50;;;11.23;;
68940;SDS011;55982;51.476;7.552;2023-06-24T03:08:21;17.48;;;10.98;;
68940;SDS011;55982;51.476;7.552;2023-06-24T03:10:49;19.13;;;11.50;;
68940;SDS011;55982;51.476;7.552;2023-06-24T03:13:19;17.67;;;10.95;;
68940;SDS011;55982;51.476;7.552;2023-06-24T03:15:44;19.20;;;10.43;;
68940;SDS011;55982;51.476;7.552;2023-06-24T03:18:10;18.77;;;11.75;;
68940;SDS011;55982;51.476;7.552;2023-06-24T03:20:36;19.30;;;11.98;;
68940;SDS011;55982;51.476;7.552;2023-06-24T03:23:05;17.30;;;10.80;;
68940;SDS011;55982;51.476;7.552;2023-06-24T03:25:31;19.88;;;11.88;;
68940;SDS011;55982;51.476;7.552;2023-06-24T03:27:56;20.95;;;12.10;;
68940;SDS011;55982;51.476;7.552;2023-06-24T03:30:22;19.20;;;12.40;;
68940;SDS011;55982;51.476;7.552;2023-06-24T03:32:47;17.38;;;11.82;;
68940;SDS011;55982;51.476;7.552;2023-06-24T03:35:13;20.23;;;11.60;;
68940;SDS011;55982;51.476;7.552;2023-06-24T03:37:38;21.13;;;12.00;;
68940;SDS011;55982;51.476;7.552;2023-06-24T03:40:04;18.42;;;12.32;;
68940;SDS011;55982;51.476;7.552;2023-06-24T03:42:30;19.92;;;11.65;;
68940;SDS011;55982;51.476;7.552;2023-06-24T03:44:55;16.60;;;11.05;;
68940;SDS011;55982;51.476;7.552;2023-06-24T03:47:20;17.15;;;11.20;;
68940;SDS011;55982;51.476;7.552;2023-06-24T03:49:46;18.27;;;11.25;;
68940;SDS011;55982;51.476;7.552;2023-06-24T03:52:11;17.33;;;10.63;;
68940;SDS011;55982;51.476;7.552;2023-06-24T03:54:36;16.80;;;10.93;;
68940;SDS011;55982;51.476;7.552;2023-06-24T03:57:02;15.90;;;10.95;;
68940;SDS011;55982;51.476;7.552;2023-06-24T03:59:27;18.77;;;10.95;;
68940;SDS011;55982;51.476;7.552;2023-06-24T04:01:53;15.02;;;9.73;;
68940;SDS011;55982;51.476;7.552;2023-06-24T04:04:19;18.42;;;10.75;;
68940;SDS011;55982;51.476;7.552;2023-06-24T04:06:44;19.58;;;10.32;;
68940;SDS011;55982;51.476;7.552;2023-06-24T04:09:09;17.50;;;10.98;;
68940;SDS011;55982;51.476;7.552;2023-06-24T04:11:35;17.33;;;10.20;;
68940;SDS011;55982;51.476;7.552;2023-06-24T04:14:01;13.77;;;9.50;;
68940;SDS011;55982;51.476;7.552;2023-06-24T04:16:27;12.00;;;8.38;;
68940;SDS011;55982;51.476;7.552;2023-06-24T04:18:52;14.63;;;8.95;;
68940;SDS011;55982;51.476;7.552;2023-06-24T04:21:17;15.05;;;9.10;;
68940;SDS011;55982;51.476;7.552;2023-06-24T04:23:43;14.32;;;8.48;;
68940;SDS011;55982;51.476;7.552;2023-06-24T04:26:08;13.43;;;8.10;;
68940;SDS011;55982;51.476;7.552;2023-06-24T04:28:34;12.60;;;8.07;;
68940;SDS011;55982;51.476;7.552;2023-06-24T04:30:59;13.02;;;8.32;;
68940;SDS011;55982;51.476;7.552;2023-06-24T04:33:25;16.15;;;7.93;;
68940;SDS011;55982;51.476;7.552;2023-06-24T04:35:50;11.10;;;8.23;;
68940;SDS011;55982;51.476;7.552;2023-06-24T04:38:16;11.15;;;7.80;;
68940;SDS011;55982;51.476;7.552;2023-06-24T04:40:43;9.45;;;7.65;;
68940;SDS011;55982;51.476;7.552;2023-06-24T04:43:10;12.10;;;8.30;;
68940;SDS011;55982;51.476;7.552;2023-06-24T04:45:35;14.02;;;8.27;;
68940;SDS011;55982;51.476;7.552;2023-06-24T04:48:00;10.52;;;7.68;;
68940;SDS011;55982;51.476;7.552;2023-06-24T04:50:26;10.50;;;7.05;;
68940;SDS011;55982;51.476;7.552;2023-06-24T04:52:54;11.35;;;7.78;;
68940;SDS011;55982;51.476;7.552;2023-06-24T04:55:21;11.60;;;7.93;;
68940;SDS011;55982;51.476;7.552;2023-06-24T04:57:47;14.07;;;7.85;;
68940;SDS011;55982;51.476;7.552;2023-06-24T05:00:14;15.18;;;7.40;;
68940;SDS011;55982;51.476;7.552;2023-06-24T05:02:40;12.07;;;7.88;;
68940;SDS011;55982;51.476;7.552;2023-06-24T05:05:05;9.88;;;7.70;;
68940;SDS011;55982;51.476;7.552;2023-06-24T05:07:31;11.02;;;7.57;;
68940;SDS011;55982;51.476;7.552;2023-06-24T05:09:56;11.90;;;7.53;;
68940;SDS011;55982;51.476;7.552;2023-06-24T05:12:22;11.75;;;7.38;;
68940;SDS011;55982;51.476;7.552;2023-06-24T05:14:50;11.23;;;7.32;;
68940;SDS011;55982;51.476;7.552;2023-06-24T05:17:19;12.57;;;7.72;;
68940;SDS011;55982;51.476;7.552;2023-06-24T05:19:45;10.32;;;7.35;;
68940;SDS011;55982;51.476;7.552;2023-06-24T05:22:10;9.25;;;7.22;;
68940;SDS011;55982;51.476;7.552;2023-06-24T05:24:35;12.43;;;7.40;;
68940;SDS011;55982;51.476;7.552;2023-06-24T05:27:04;10.18;;;7.75;;
68940;SDS011;55982;51.476;7.552;2023-06-24T05:29:31;10.82;;;7.38;;
68940;SDS011;55982;51.476;7.552;2023-06-24T05:31:56;8.90;;;7.20;;
68940;SDS011;55982;51.476;7.552;2023-06-24T05:34:22;12.23;;;6.57;;
68940;SDS011;55982;51.476;7.552;2023-06-24T05:36:47;9.68;;;6.88;;
68940;SDS011;55982;51.476;7.552;2023-06-24T05:39:13;13.23;;;6.72;;
68940;SDS011;55982;51.476;7.552;2023-06-24T05:41:38;11.13;;;6.82;;
68940;SDS011;55982;51.476;7.552;2023-06-24T05:44:05;10.40;;;7.50;;
68940;SDS011;55982;51.476;7.552;2023-06-24T05:46:32;11.10;;;6.88;;
68940;SDS011;55982;51.476;7.552;2023-06-24T05:48:57;9.15;;;7.03;;
68940;SDS011;55982;51.476;7.552;2023-06-24T05:51:23;10.35;;;7.22;;
68940;SDS011;55982;51.476;7.552;2023-06-24T05:53:48;9.23;;;6.32;;
68940;SDS011;55982;51.476;7.552;2023-06-24T05:56:15;9.35;;;6.70;;
68940;SDS011;55982;51.476;7.552;2023-06-24T05:58:42;8.80;;;7.05;;
68940;SDS011;55982;51.476;7.552;2023-06-24T06:01:08;12.18;;;6.63;;
68940;SDS011;55982;51.476;7.552;2023-06-24T06:03:34;9.27;;;6.50;;
68940;SDS011;55982;51.476;7.552;2023-06-24T06:06:00;11.07;;;6.85;;
68940;SDS011;55982;51.476;7.552;2023-06-24T06:08:25;11.50;;;6.50;;
68940;SDS011;55982;51.476;7.552;2023-06-24T06:10:50;7.90;;;6.38;;
68940;SDS011;55982;51.476;7.552;2023-06-24T06:13:16;8.73;;;6.63;;
68940;SDS011;55982;51.476;7.552;2023-06-24T06:15:41;8.77;;;6.25;;
68940;SDS011;55982;51.476;7.552;2023-06-24T06:18:06;11.05;;;6.25;;
68940;SDS011;55982;51.476;7.552;2023-06-24T06:20:32;10.25;;;6.38;;
68940;SDS011;55982;51.476;7.552;2023-06-24T06:22:57;9.52;;;6.07;;
68940;SDS011;55982;51.476;7.552;2023-06-24T06:25:23;9.40;;;6.22;;
68940;SDS011;55982;51.476;7.552;2023-06-24T06:27:48;8.50;;;6.07;;
68940;SDS011;55982;51.476;7.552;2023-06-24T06:30:14;11.20;;;6.28;;
68940;SDS011;55982;51.476;7.552;2023-06-24T06:32:40;10.38;;;6.30;;
68940;SDS011;55982;51.476;7.552;2023-06-24T06:35:06;9.43;;;6.15;;
68940;SDS011;55982;51.476;7.552;2023-06-24T06:37:32;8.25;;;6.00;;
68940;SDS011;55982;51.476;7.552;2023-06-24T06:39:57;6.97;;;6.07;;
68940;SDS011;55982;51.476;7.552;2023-06-24T06:42:22;12.32;;;6.53;;
68940;SDS011;55982;51.476;7.552;2023-06-24T06:44:48;7.43;;;5.82;;
68940;SDS011;55982;51.476;7.552;2023-06-24T06:47:13;7.90;;;6.10;;
68940;SDS011;55982;51.476;7.552;2023-06-24T06:49:38;8.75;;;5.90;;
68940;SDS011;55982;51.476;7.552;2023-06-24T06:52:04;6.78;;;5.20;;
68940;SDS011;55982;51.476;7.552;2023-06-24T06:54:30;7.63;;;5.50;;
68940;SDS011;55982;51.476;7.552;2023-06-24T06:56:59;8.10;;;5.45;;
68940;SDS011;55982;51.476;7.552;2023-06-24T06:59:25;9.05;;;6.00;;
68940;SDS011;55982;51.476;7.552;2023-06-24T07:01:51;7.30;;;5.82;;
68940;SDS011;55982;51.476;7.552;2023-06-24T07:04:16;7.90;;;5.57;;
68940;SDS011;55982;51.476;7.552;2023-06-24T07:06:42;6.88;;;5.18;;
68940;SDS011;55982;51.476;7.552;2023-06-24T07:09:07;8.52;;;5.25;;
68940;SDS011;55982;51.476;7.552;2023-06-24T07:11:32;9.23;;;5.72;;
68940;SDS011;55982;51.476;7.552;2023-06-24T07:13:58;7.38;;;5.30;;
68940;SDS011;55982;51.476;7.552;2023-06-24T07:16:23;7.45;;;5.32;;
68940;SDS011;55982;51.476;7.552;2023-06-24T07:18:48;7.10;;;5.53;;
68940;SDS011;55982;51.476;7.552;2023-06-24T07:21:14;6.25;;;5.05;;
68940;SDS011;55982;51.476;7.552;2023-06-24T07:23:40;8.27;;;4.97;;
68940;SDS011;55982;51.476;7.552;2023-06-24T07:26:06;8.88;;;5.82;;
68940;SDS011;55982;51.476;7.552;2023-06-24T07:28:32;7.65;;;5.20;;
68940;SDS011;55982;51.476;7.552;2023-06-24T07:30:58;9.75;;;6.07;;
68940;SDS011;55982;51.476;7.552;2023-06-24T07:33:23;7.20;;;5.95;;
68940;SDS011;55982;51.476;7.552;2023-06-24T07:35:48;6.47;;;4.70;;
68940;SDS011;55982;51.476;7.552;2023-06-24T07:38:14;9.00;;;5.35;;
68940;SDS011;55982;51.476;7.552;2023-06-24T07:40:39;5.90;;;5.30;;
68940;SDS011;55982;51.476;7.552;2023-06-24T07:43:05;6.13;;;5.30;;
68940;SDS011;55982;51.476;7.552;2023-06-24T07:45:30;5.95;;;5.32;;
68940;SDS011;55982;51.476;7.552;2023-06-24T07:47:56;7.28;;;5.97;;
68940;SDS011;55982;51.476;7.552;2023-06-24T07:50:21;8.32;;;5.70;;
68940;SDS011;55982;51.476;7.552;2023-06-24T07:52:46;7.80;;;6.05;;
68940;SDS011;55982;51.476;7.552;2023-06-24T07:55:12;6.95;;;5.43;;
68940;SDS011;55982;51.476;7.552;2023-06-24T07:57:37;9.23;;;5.68;;
68940;SDS011;55982;51.476;7.552;2023-06-24T08:00:03;7.90;;;5.70;;
68940;SDS011;55982;51.476;7.552;2023-06-24T08:02:34;8.20;;;5.70;;
68940;SDS011;55982;51.476;7.552;2023-06-24T08:04:59;8.30;;;6.65;;
68940;SDS011;55982;51.476;7.552;2023-06-24T08:07:25;9.02;;;6.43;;
68940;SDS011;55982;51.476;7.552;2023-06-24T08:09:50;6.95;;;6.18;;
68940;SDS011;55982;51.476;7.552;2023-06-24T08:12:16;9.93;;;6.82;;
68940;SDS011;55982;51.476;7.552;2023-06-24T08:14:41;8.45;;;6.57;;
68940;SDS011;55982;51.476;7.552;2023-06-24T08:17:07;10.27;;;6.18;;
68940;SDS011;55982;51.476;7.552;2023-06-24T08:19:32;7.65;;;6.25;;
68940;SDS011;55982;51.476;7.552;2023-06-24T08:21:58;8.77;;;6.60;;
68940;SDS011;55982;51.476;7.552;2023-06-24T08:24:23;7.32;;;6.38;;
68940;SDS011;55982;51.476;7.552;2023-06-24T08:26:49;7.00;;;5.45;;
68940;SDS011;55982;51.476;7.552;2023-06-24T08:29:14;8.25;;;5.30;;
68940;SDS011;55982;51.476;7.552;2023-06-24T08:31:39;7.72;;;5.53;;
68940;SDS011;55982;51.476;7.552;2023-06-24T08:34:05;6.78;;;5.25;;
68940;SDS011;55982;51.476;7.552;2023-06-24T08:36:31;7.50;;;5.65;;
68940;SDS011;55982;51.476;7.552;2023-06-24T08:38:57;5.10;;;4.60;;
68940;SDS011;55982;51.476;7.552;2023-06-24T08:41:24;6.45;;;5.47;;
68940;SDS011;55982;51.476;7.552;2023-06-24T08:43:50;7.15;;;5.35;;
68940;SDS011;55982;51.476;7.552;2023-06-24T08:46:16;5.43;;;4.72;;
68940;SDS011;55982;51.476;7.552;2023-06-24T08:48:42;7.32;;;5.43;;
68940;SDS011;55982;51.476;7.552;2023-06-24T08:51:10;8.25;;;5.63;;
68940;SDS011;55982;51.476;7.552;2023-06-24T08:53:38;5.75;;;5.20;;
68940;SDS011;55982;51.476;7.552;2023-06-24T08:56:07;8.02;;;5.05;;
68940;SDS011;55982;51.476;7.552;2023-06-24T08:58:33;7.43;;;5.40;;
68940;SDS011;55982;51.476;7.552;2023-06-24T09:00:58;7.45;;;5.65;;
68940;SDS011;55982;51.476;7.552;2023-06-24T09:03:25;10.10;;;6.72;;
68940;SDS011;55982;51.476;7.552;2023-06-24T09:05:50;12.07;;;7.45;;
68940;SDS011;55982;51.476;7.552;2023-06-24T09:08:16;7.60;;;6.72;;
68940;SDS011;55982;51.476;7.552;2023-06-24T09:10:41;7.82;;;6.53;;
68940;SDS011;55982;51.476;7.552;2023-06-24T09:13:07;7.57;;;6.78;;
68940;SDS011;55982;51.476;7.552;2023-06-24T09:17:59;9.95;;;6.18;;
68940;SDS011;55982;51.476;7.552;2023-06-24T09:20:28;8.40;;;5.75;;
68940;SDS011;55982;51.476;7.552;2023-06-24T09:23:01;8.63;;;6.40;;
68940;SDS011;55982;51.476;7.552;2023-06-24T09:25:28;8.52;;;6.18;;
68940;SDS011;55982;51.476;7.552;2023-06-24T09:27:54;9.63;;;7.53;;
68940;SDS011;55982;51.476;7.552;2023-06-24T09:30:23;9.05;;;7.47;;
68940;SDS011;55982;51.476;7.552;2023-06-24T09:32:49;11.05;;;8.02;;
68940;SDS011;55982;51.476;7.552;2023-06-24T09:35:18;10.05;;;7.10;;
68940;SDS011;55982;51.476;7.552;2023-06-24T09:37:49;9.15;;;7.32;;
68940;SDS011;55982;51.476;7.552;2023-06-24T09:40:18;8.82;;;7.45;;
68940;SDS011;55982;51.476;7.552;2023-06-24T09:43:03;10.77;;;7.55;;
68940;SDS011;55982;51.476;7.552;2023-06-24T09:45:29;11.77;;;9.02;;
68940;SDS011;55982;51.476;7.552;2023-06-24T09:47:55;12.55;;;8.40;;
68940;SDS011;55982;51.476;7.552;2023-06-24T09:50:22;10.18;;;6.95;;
68940;SDS011;55982;51.476;7.552;2023-06-24T09:52:49;9.20;;;6.90;;
68940;SDS011;55982;51.476;7.552;2023-06-24T09:55:15;8.77;;;6.95;;
68940;SDS011;55982;51.476;7.552;2023-06-24T09:57:44;9.30;;;6.55;;
68940;SDS011;55982;51.476;7.552;2023-06-24T10:00:15;9.05;;;6.97;;
68940;SDS011;55982;51.476;7.552;2023-06-24T10:02:43;12.00;;;6.78;;
68940;SDS011;55982;51.476;7.552;2023-06-24T10:05:10;9.63;;;7.22;;
68940;SDS011;55982;51.476;7.552;2023-06-24T10:07:36;11.18;;;8.88;;
68940;SDS011;55982;51.476;7.552;2023-06-24T10:10:04;9.25;;;7.18;;
68940;SDS011;55982;51.476;7.552;2023-06-24T10:12:31;12.10;;;8.02;;
68940;SDS011;55982;51.476;7.552;2023-06-24T10:14:57;8.70;;;6.60;;
68940;SDS011;55982;51.476;7.552;2023-06-24T10:17:24;11.40;;;7.95;;
68940;SDS011;55982;51.476;7.552;2023-06-24T10:19:51;9.80;;;8.25;;
68940;SDS011;55982;51.476;7.552;2023-06-24T10:22:25;11.07;;;7.43;;
68940;SDS011;55982;51.476;7.552;2023-06-24T10:25:37;9.15;;;7.57;;
68940;SDS011;55982;51.476;7.552;2023-06-24T10:28:03;11.95;;;6.78;;
68940;SDS011;55982;51.476;7.552;2023-06-24T10:30:28;9.18;;;5.95;;
68940;SDS011;55982;51.476;7.552;2023-06-24T10:32:54;7.10;;;5.43;;
68940;SDS011;55982;51.476;7.552;2023-06-24T10:35:23;8.73;;;5.68;;
68940;SDS011;55982;51.476;7.552;2023-06-24T10:37:54;6.55;;;5.13;;
68940;SDS011;55982;51.476;7.552;2023-06-24T10:40:40;7.85;;;6.07;;
68940;SDS011;55982;51.476;7.552;2023-06-24T10:45:49;8.38;;;5.38;;
68940;SDS011;55982;51.476;7.552;2023-06-24T10:48:16;5.45;;;4.95;;
68940;SDS011;55982;51.476;7.552;2023-06-24T10:50:44;6.22;;;4.70;;
68940;SDS011;55982;51.476;7.552;2023-06-24T10:53:10;9.30;;;5.32;;
68940;SDS011;55982;51.476;7.552;2023-06-24T10:55:37;6.10;;;5.10;;
68940;SDS011;55982;51.476;7.552;2023-06-24T10:58:09;7.15;;;4.88;;
68940;SDS011;55982;51.476;7.552;2023-06-24T11:00:35;6.10;;;3.97;;
68940;SDS011;55982;51.476;7.552;2023-06-24T11:03:13;6.00;;;4.90;;
68940;SDS011;55982;51.476;7.552;2023-06-24T11:05:40;11.23;;;4.63;;
68940;SDS011;55982;51.476;7.552;2023-06-24T11:08:07;7.00;;;4.75;;
68940;SDS011;55982;51.476;7.552;2023-06-24T11:10:33;6.05;;;5.30;;
68940;SDS011;55982;51.476;7.552;2023-06-24T11:13:07;6.32;;;4.20;;
68940;SDS011;55982;51.476;7.552;2023-06-24T11:15:33;5.25;;;3.97;;
68940;SDS011;55982;51.476;7.552;2023-06-24T11:18:01;6.63;;;3.75;;
68940;SDS011;55982;51.476;7.552;2023-06-24T11:20:28;5.93;;;4.38;;
68940;SDS011;55982;51.476;7.552;2023-06-24T11:22:53;6.10;;;3.97;;
68940;SDS011;55982;51.476;7.552;2023-06-24T11:25:20;4.68;;;4.07;;
68940;SDS011;55982;51.476;7.552;2023-06-24T11:27:52;4.75;;;3.92;;
68940;SDS011;55982;51.476;7.552;2023-06-24T11:30:20;5.00;;;3.60;;
68940;SDS011;55982;51.476;7.552;2023-06-24T11:32:46;6.15;;;4.05;;
68940;SDS011;55982;51.476;7.552;2023-06-24T11:35:13;4.30;;;3.50;;
68940;SDS011;55982;51.476;7.552;2023-06-24T11:37:42;6.18;;;3.60;;
68940;SDS011;55982;51.476;7.552;2023-06-24T11:40:10;5.00;;;3.90;;
68940;SDS011;55982;51.476;7.552;2023-06-24T11:42:37;4.63;;;3.58;;
68940;SDS011;55982;51.476;7.552;2023-06-24T11:45:05;6.07;;;4.45;;
68940;SDS011;55982;51.476;7.552;2023-06-24T11:47:33;4.95;;;3.50;;
68940;SDS011;55982;51.476;7.552;2023-06-24T11:49:59;6.57;;;4.15;;
68940;SDS011;55982;51.476;7.552;2023-06-24T11:55:21;10.68;;;4.40;;
68940;SDS011;55982;51.476;7.552;2023-06-24T11:57:50;4.10;;;3.15;;
68940;SDS011;55982;51.476;7.552;2023-06-24T12:00:24;5.97;;;3.38;;
68940;SDS011;55982;51.476;7.552;2023-06-24T12:02:56;5.47;;;3.55;;
68940;SDS011;55982;51.476;7.552;2023-06-24T12:05:32;9.32;;;4.05;;
68940;SDS011;55982;51.476;7.552;2023-06-24T12:08:02;4.05;;;3.65;;
68940;SDS011;55982;51.476;7.552;2023-06-24T12:10:31;5.43;;;4.18;;
68940;SDS011;55982;51.476;7.552;2023-06-24T12:13:00;5.45;;;3.97;;
68940;SDS011;55982;51.476;7.552;2023-06-24T12:15:27;4.65;;;3.47;;
68940;SDS011;55982;51.476;7.552;2023-06-24T12:17:53;4.20;;;3.45;;
68940;SDS011;55982;51.476;7.552;2023-06-24T12:20:21;6.13;;;4.00;;
68940;SDS011;55982;51.476;7.552;2023-06-24T12:22:47;5.82;;;3.80;;
68940;SDS011;55982;51.476;7.552;2023-06-24T12:25:14;5.93;;;3.33;;
68940;SDS011;55982;51.476;7.552;2023-06-24T12:27:41;5.30;;;3.40;;
68940;SDS011;55982;51.476;7.552;2023-06-24T12:30:07;3.92;;;3.40;;
68940;SDS011;55982;51.476;7.552;2023-06-24T12:32:33;3.53;;;2.95;;
68940;SDS011;55982;51.476;7.552;2023-06-24T12:34:59;3.60;;;3.10;;
68940;SDS011;55982;51.476;7.552;2023-06-24T12:37:24;5.70;;;3.55;;
68940;SDS011;55982;51.476;7.552;2023-06-24T12:39:50;4.35;;;3.05;;
68940;SDS011;55982;51.476;7.552;2023-06-24T12:42:18;4.07;;;3.10;;
68940;SDS011;55982;51.476;7.552;2023-06-24T12:44:43;5.28;;;3.20;;
68940;SDS011;55982;51.476;7.552;2023-06-24T12:47:08;4.93;;;2.97;;
68940;SDS011;55982;51.476;7.552;2023-06-24T12:49:34;5.90;;;3.45;;
68940;SDS011;55982;51.476;7.552;2023-06-24T12:52:01;4.03;;;3.10;;
68940;SDS011;55982;51.476;7.552;2023-06-24T12:54:27;4.45;;;3.42;;
68940;SDS011;55982;51.476;7.552;2023-06-24T12:57:03;4.82;;;3.60;;
68940;SDS011;55982;51.476;7.552;2023-06-24T12:59:28;3.97;;;3.10;;
68940;SDS011;55982;51.476;7.552;2023-06-24T13:01:54;5.55;;;3.55;;
68940;SDS011;55982;51.476;7.552;2023-06-24T13:04:19;5.80;;;3.15;;
68940;SDS011;55982;51.476;7.552;2023-06-24T13:06:47;3.47;;;3.17;;
68940;SDS011;55982;51.476;7.552;2023-06-24T13:09:14;6.82;;;3.40;;
68940;SDS011;55982;51.476;7.552;2023-06-24T13:11:39;4.40;;;3.28;;
68940;SDS011;55982;51.476;7.552;2023-06-24T13:14:05;5.40;;;3.30;;
68940;SDS011;55982;51.476;7.552;2023-06-24T13:16:35;5.82;;;3.40;;
68940;SDS011;55982;51.476;7.552;2023-06-24T13:19:01;4.03;;;3.10;;
68940;SDS011;55982;51.476;7.552;2023-06-24T13:21:27;5.40;;;3.50;;
68940;SDS011;55982;51.476;7.552;2023-06-24T13:23:53;5.90;;;2.90;;
68940;SDS011;55982;51.476;7.552;2023-06-24T13:26:18;4.20;;;3.40;;
68940;SDS011;55982;51.476;7.552;2023-06-24T13:28:44;3.75;;;3.10;;
68940;SDS011;55982;51.476;7.552;2023-06-24T13:31:11;4.00;;;3.17;;
68940;SDS011;55982;51.476;7.552;2023-06-24T13:33:36;3.28;;;2.97;;
68940;SDS011;55982;51.476;7.552;2023-06-24T13:36:03;4.07;;;2.97;;
68940;SDS011;55982;51.476;7.552;2023-06-24T13:38:29;3.85;;;3.20;;
68940;SDS011;55982;51.476;7.552;2023-06-24T13:40:56;3.92;;;3.22;;
68940;SDS011;55982;51.476;7.552;2023-06-24T13:43:21;3.70;;;3.22;;
68940;SDS011;55982;51.476;7.552;2023-06-24T13:45:47;3.80;;;3.08;;
68940;SDS011;55982;51.476;7.552;2023-06-24T13:48:12;4.00;;;3.47;;
68940;SDS011;55982;51.476;7.552;2023-06-24T13:50:38;3.70;;;3.40;;
68940;SDS011;55982;51.476;7.552;2023-06-24T13:53:10;4.18;;;3.00;;
68940;SDS011;55982;51.476;7.552;2023-06-24T13:55:36;3.95;;;3.40;;
68940;SDS011;55982;51.476;7.552;2023-06-24T13:58:09;3.88;;;3.25;;
68940;SDS011;55982;51.476;7.552;2023-06-24T14:00:46;3.53;;;3.10;;
68940;SDS011;55982;51.476;7.552;2023-06-24T14:03:12;3.67;;;3.08;;
68940;SDS011;55982;51.476;7.552;2023-06-24T14:05:37;2.75;;;2.50;;
68940;SDS011;55982;51.476;7.552;2023-06-24T14:08:03;4.10;;;2.38;;
68940;SDS011;55982;51.476;7.552;2023-06-24T14:10:28;4.28;;;3.13;;
68940;SDS011;55982;51.476;7.552;2023-06-24T14:12:57;2.92;;;2.72;;
68940;SDS011;55982;51.476;7.552;2023-06-24T14:15:22;6.78;;;3.20;;
68940;SDS011;55982;51.476;7.552;2023-06-24T14:17:48;3.35;;;3.05;;
68940;SDS011;55982;51.476;7.552;2023-06-24T14:20:13;3.30;;;3.00;;
68940;SDS011;55982;51.476;7.552;2023-06-24T14:22:39;3.55;;;2.85;;
68940;SDS011;55982;51.476;7.552;2023-06-24T14:25:04;4.15;;;3.10;;
68940;SDS011;55982;51.476;7.552;2023-06-24T14:27:30;5.25;;;3.28;;
68940;SDS011;55982;51.476;7.552;2023-06-24T14:29:55;3.40;;;2.60;;
68940;SDS011;55982;51.476;7.552;2023-06-24T14:32:21;3.88;;;2.92;;
68940;SDS011;55982;51.476;7.552;2023-06-24T14:34:46;3.65;;;3.05;;
68940;SDS011;55982;51.476;7.552;2023-06-24T14:37:12;4.00;;;3.13;;
68940;SDS011;55982;51.476;7.552;2023-06-24T14:39:38;3.35;;;2.95;;
68940;SDS011;55982;51.476;7.552;2023-06-24T14:42:05;3.63;;;2.60;;
68940;SDS011;55982;51.476;7.552;2023-06-24T14:44:30;4.75;;;2.45;;
68940;SDS011;55982;51.476;7.552;2023-06-24T14:46:56;2.80;;;2.60;;
68940;SDS011;55982;51.476;7.552;2023-06-24T14:49:21;3.17;;;2.88;;
68940;SDS011;55982;51.476;7.552;2023-06-24T14:51:47;4.95;;;2.80;;
68940;SDS011;55982;51.476;7.552;2023-06-24T14:54:12;4.07;;;2.58;;
68940;SDS011;55982;51.476;7.552;2023-06-24T14:56:38;4.03;;;2.63;;